Time;durP1;ratioP1;P1;durP2;ratioP2;P2;SDS_P1;SDS_P2;PMS_P1;PMS_P2;Temp;Humidity;BMP_temperature;BMP_pressure;BME280_temperature;BME280_humidity;BME280_pressure;Samples;Min_cycle;Max_cycle;Signal;HPM_P1;HPM_P2
2022/03/16 00:00:24;;;;;;;17.98;11.38;;;3.40;99.90;;;;;;5048271;28;20025;-77
2022/03/16 00:02:50;;;;;;;16.83;10.65;;;3.40;99.90;;;;;;5047871;28;20029;-77
2022/03/16 00:05:17;;;;;;;18.15;11.40;;;3.30;99.90;;;;;;5049728;28;20477;-76
2022/03/16 00:07:42;;;;;;;18.00;11.40;;;3.30;99.90;;;;;;5049644;28;20021;-77
2022/03/16 00:10:09;;;;;;;14.70;10.15;;;3.30;99.90;;;;;;5049909;28;20033;-77
2022/03/16 00:12:39;;;;;;;17.75;10.98;;;3.20;99.90;;;;;;5049585;28;20114;-77
2022/03/16 00:15:06;;;;;;;14.35;10.82;;;3.20;99.90;;;;;;5050096;28;20059;-77
2022/03/16 00:17:32;;;;;;;16.20;11.57;;;3.10;99.90;;;;;;5050035;28;20021;-76
2022/03/16 00:19:58;;;;;;;15.68;11.50;;;3.10;99.90;;;;;;5049638;28;20116;-77
2022/03/16 00:22:23;;;;;;;15.40;11.00;;;3.10;99.90;;;;;;5048065;28;20591;-77
2022/03/16 00:24:49;;;;;;;17.35;11.45;;;3.10;99.90;;;;;;5049512;28;20102;-77
2022/03/16 00:27:15;;;;;;;20.17;12.57;;;3.10;99.90;;;;;;5048583;28;20029;-77
2022/03/16 00:29:40;;;;;;;21.85;12.95;;;3.00;99.90;;;;;;5048209;28;20036;-76
2022/03/16 00:32:06;;;;;;;19.75;12.50;;;3.00;99.90;;;;;;5048153;28;20716;-77
2022/03/16 00:34:32;;;;;;;20.38;13.10;;;3.00;99.90;;;;;;5048042;28;20392;-77
2022/03/16 00:36:58;;;;;;;17.42;13.15;;;3.00;99.90;;;;;;5049409;28;20035;-77
2022/03/16 00:39:24;;;;;;;22.48;13.27;;;3.00;99.90;;;;;;5049167;28;20103;-77
2022/03/16 00:41:50;;;;;;;19.15;12.18;;;3.00;99.90;;;;;;5050370;28;20037;-77
2022/03/16 00:44:15;;;;;;;17.42;11.18;;;2.90;99.90;;;;;;5053004;28;20036;-76
2022/03/16 00:46:41;;;;;;;17.58;11.43;;;2.90;99.90;;;;;;5051048;28;20082;-76
2022/03/16 00:49:07;;;;;;;19.10;12.48;;;2.90;99.90;;;;;;5052068;28;20665;-76
2022/03/16 00:51:33;;;;;;;15.25;9.95;;;2.80;99.90;;;;;;5051032;28;20021;-77
2022/03/16 00:53:59;;;;;;;18.92;11.25;;;2.80;99.90;;;;;;5052920;28;20028;-76
2022/03/16 00:56:24;;;;;;;16.98;12.02;;;2.80;99.90;;;;;;5058109;28;20024;-76
2022/03/16 00:58:50;;;;;;;16.45;10.98;;;2.80;99.90;;;;;;5054899;28;20530;-77
2022/03/16 01:01:16;;;;;;;15.15;11.20;;;2.80;99.90;;;;;;5072952;28;20025;-77
2022/03/16 01:03:41;;;;;;;18.30;11.82;;;2.70;99.90;;;;;;5072922;28;20024;-77
2022/03/16 01:06:15;;;;;;;16.02;10.65;;;2.70;99.90;;;;;;5054803;28;20503;-77
2022/03/16 01:08:43;;;;;;;20.70;11.88;;;2.60;99.90;;;;;;5055127;28;20108;-76
2022/03/16 01:11:11;;;;;;;16.83;11.35;;;2.60;99.90;;;;;;5054699;28;20115;-77
2022/03/16 01:13:36;;;;;;;18.50;13.45;;;2.60;99.90;;;;;;5071814;28;20054;-77
2022/03/16 01:16:02;;;;;;;19.52;11.68;;;2.60;99.90;;;;;;5072508;28;20024;-76
2022/03/16 01:18:28;;;;;;;25.40;14.18;;;2.60;99.90;;;;;;5054598;28;20388;-76
2022/03/16 01:20:53;;;;;;;23.35;13.35;;;2.60;99.90;;;;;;5072666;28;20024;-77
2022/03/16 01:23:19;;;;;;;21.52;13.02;;;2.70;99.90;;;;;;5054907;28;20524;-76
2022/03/16 01:25:45;;;;;;;18.88;13.23;;;2.70;99.90;;;;;;5053957;28;20331;-76
2022/03/16 01:28:10;;;;;;;17.73;10.98;;;2.70;99.90;;;;;;5054467;28;20063;-76
2022/03/16 01:30:36;;;;;;;16.42;11.52;;;2.70;99.90;;;;;;5054753;28;20550;-76
2022/03/16 01:33:01;;;;;;;19.02;12.10;;;2.60;99.90;;;;;;5054188;28;20013;-76
2022/03/16 01:35:27;;;;;;;17.38;11.80;;;2.60;99.90;;;;;;5072657;28;20021;-77
2022/03/16 01:37:52;;;;;;;20.50;12.18;;;2.60;99.90;;;;;;5072464;28;20040;-76
2022/03/16 01:40:18;;;;;;;20.02;10.82;;;2.50;99.90;;;;;;5054632;28;20020;-77
2022/03/16 01:42:44;;;;;;;18.00;11.05;;;2.50;99.90;;;;;;5071906;28;20171;-76
2022/03/16 01:45:09;;;;;;;15.82;11.38;;;2.50;99.90;;;;;;5053799;28;20017;-77
2022/03/16 01:47:35;;;;;;;17.00;11.35;;;2.40;99.90;;;;;;5053995;28;20397;-76
2022/03/16 01:50:01;;;;;;;19.70;11.40;;;2.40;99.90;;;;;;5053308;28;20613;-76
2022/03/16 01:52:28;;;;;;;14.88;10.80;;;2.40;99.90;;;;;;5054205;28;20448;-76
2022/03/16 01:54:55;;;;;;;16.88;10.30;;;2.40;99.90;;;;;;5053336;28;20390;-77
2022/03/16 01:57:21;;;;;;;15.35;10.20;;;2.40;99.90;;;;;;5047646;28;20053;-77
2022/03/16 01:59:47;;;;;;;16.63;11.30;;;2.50;99.90;;;;;;5047460;28;20064;-76
2022/03/16 02:02:14;;;;;;;17.52;11.63;;;2.50;99.90;;;;;;5047489;28;20544;-76
2022/03/16 02:04:40;;;;;;;16.90;10.55;;;2.50;99.90;;;;;;5049253;28;20482;-76
2022/03/16 02:07:06;;;;;;;18.98;10.48;;;2.50;99.90;;;;;;5051921;28;20043;-76
2022/03/16 02:09:32;;;;;;;23.58;12.23;;;2.50;99.90;;;;;;5051963;28;20036;-76
2022/03/16 02:11:58;;;;;;;19.42;11.35;;;2.50;99.90;;;;;;5050368;28;20033;-76
2022/03/16 02:14:24;;;;;;;17.40;10.48;;;2.50;99.90;;;;;;5051539;28;20029;-76
2022/03/16 02:16:51;;;;;;;15.95;11.48;;;2.60;99.90;;;;;;5051485;28;20036;-76
2022/03/16 02:19:16;;;;;;;16.40;11.13;;;2.60;99.90;;;;;;5051811;28;20021;-76
2022/03/16 02:21:46;;;;;;;14.35;10.80;;;2.60;99.90;;;;;;5051455;28;20150;-77
2022/03/16 02:24:11;;;;;;;15.50;11.48;;;2.60;99.90;;;;;;5050055;28;20426;-77
2022/03/16 02:26:37;;;;;;;15.10;11.20;;;2.60;99.90;;;;;;5050956;28;20028;-76
2022/03/16 02:29:03;;;;;;;15.60;10.45;;;2.70;99.90;;;;;;5051087;28;20035;-76
2022/03/16 02:31:28;;;;;;;14.30;10.07;;;2.70;99.90;;;;;;5049844;28;20025;-76
2022/03/16 02:33:54;;;;;;;12.73;11.02;;;2.70;99.90;;;;;;5049711;28;20501;-76
2022/03/16 02:36:20;;;;;;;14.73;10.43;;;2.70;99.90;;;;;;5049665;28;20029;-76
2022/03/16 02:38:46;;;;;;;15.27;11.23;;;2.70;99.90;;;;;;5044727;28;20049;-76
2022/03/16 02:41:11;;;;;;;16.52;10.57;;;2.70;99.90;;;;;;5049189;28;20029;-76
2022/03/16 02:43:38;;;;;;;15.13;12.13;;;2.70;99.90;;;;;;5047958;28;20019;-77
2022/03/16 02:46:03;;;;;;;17.15;12.27;;;2.70;99.90;;;;;;5050426;28;20101;-76
2022/03/16 02:48:29;;;;;;;24.90;15.45;;;2.70;99.90;;;;;;5049874;28;20116;-77
2022/03/16 02:50:55;;;;;;;28.02;16.73;;;2.80;99.90;;;;;;5050604;28;20481;-76
2022/03/16 02:53:20;;;;;;;26.50;15.18;;;2.80;99.90;;;;;;5050386;28;20036;-76
2022/03/16 02:55:47;;;;;;;34.25;18.13;;;2.80;99.90;;;;;;5050753;28;20107;-76
2022/03/16 02:58:13;;;;;;;36.85;19.92;;;2.90;99.90;;;;;;5049066;28;20497;-76
2022/03/16 03:00:39;;;;;;;32.92;20.05;;;2.90;99.90;;;;;;5050658;28;20028;-76
2022/03/16 03:03:05;;;;;;;34.83;19.77;;;3.00;99.90;;;;;;5049009;28;20116;-76
2022/03/16 03:05:30;;;;;;;39.90;21.55;;;3.10;99.90;;;;;;5048947;28;20563;-76
2022/03/16 03:07:56;;;;;;;36.30;21.05;;;3.10;99.90;;;;;;5050820;28;20065;-76
2022/03/16 03:10:21;;;;;;;37.65;21.63;;;3.10;99.90;;;;;;5049180;28;20032;-76
2022/03/16 03:12:47;;;;;;;33.05;19.42;;;3.10;99.90;;;;;;5049902;28;20025;-76
2022/03/16 03:15:13;;;;;;;34.90;22.00;;;3.10;99.90;;;;;;5049121;28;20036;-76
2022/03/16 03:17:41;;;;;;;39.22;21.02;;;3.10;99.90;;;;;;5049633;28;20043;-76
2022/03/16 03:20:07;;;;;;;29.77;17.58;;;3.10;99.90;;;;;;5046410;28;20044;-76
2022/03/16 03:22:33;;;;;;;33.95;19.00;;;3.10;99.90;;;;;;5047736;28;20048;-76
2022/03/16 03:24:58;;;;;;;28.33;18.10;;;3.00;99.90;;;;;;5049460;28;20098;-76
2022/03/16 03:27:24;;;;;;;42.28;20.52;;;2.90;99.90;;;;;;5049090;28;20017;-76
2022/03/16 03:29:51;;;;;;;37.40;20.40;;;2.90;99.90;;;;;;5049078;28;20036;-76
2022/03/16 03:32:16;;;;;;;37.17;20.70;;;2.90;99.90;;;;;;5048601;28;20056;-77
2022/03/16 03:34:46;;;;;;;38.08;21.33;;;2.90;99.90;;;;;;5048484;28;20485;-76
2022/03/16 03:37:13;;;;;;;41.28;21.35;;;2.90;99.90;;;;;;5049983;28;20040;-77
2022/03/16 03:39:39;;;;;;;41.75;19.88;;;2.90;99.90;;;;;;5048871;28;20040;-76
2022/03/16 03:42:05;;;;;;;35.50;21.60;;;2.90;99.90;;;;;;5049613;28;20036;-76
2022/03/16 03:44:31;;;;;;;37.15;19.25;;;2.80;99.90;;;;;;5049705;28;20024;-76
2022/03/16 03:46:56;;;;;;;35.75;18.58;;;2.80;99.90;;;;;;5048498;28;20021;-76
2022/03/16 03:49:22;;;;;;;29.45;18.80;;;2.70;99.90;;;;;;5049379;28;20102;-77
2022/03/16 03:51:47;;;;;;;29.70;17.95;;;2.70;99.90;;;;;;5049778;28;20021;-76
2022/03/16 03:54:13;;;;;;;30.10;17.95;;;2.60;99.90;;;;;;5049586;28;20477;-76
2022/03/16 03:56:39;;;;;;;28.48;15.82;;;2.50;99.90;;;;;;5056177;28;20040;-77
2022/03/16 03:59:04;;;;;;;29.90;17.48;;;2.50;99.90;;;;;;5069347;28;20033;-76
2022/03/16 04:01:30;;;;;;;27.17;17.38;;;2.40;99.90;;;;;;5069770;28;20035;-76
2022/03/16 04:03:55;;;;;;;25.95;16.90;;;2.40;99.90;;;;;;5050737;28;20031;-76
2022/03/16 04:06:21;;;;;;;24.85;15.55;;;2.40;99.90;;;;;;5051779;28;20029;-76
2022/03/16 04:08:47;;;;;;;28.45;16.73;;;2.30;99.90;;;;;;5051710;28;20021;-76
2022/03/16 04:11:12;;;;;;;29.27;15.75;;;2.30;99.90;;;;;;5051088;28;20624;-77
2022/03/16 04:13:38;;;;;;;29.60;16.27;;;2.20;99.90;;;;;;5050682;28;20123;-76
2022/03/16 04:16:04;;;;;;;31.50;16.60;;;2.20;99.90;;;;;;5069904;28;20540;-76
2022/03/16 04:18:29;;;;;;;26.60;17.05;;;2.20;99.90;;;;;;5058022;28;20033;-76
2022/03/16 04:20:55;;;;;;;32.20;18.92;;;2.10;99.90;;;;;;5058683;28;20393;-76
2022/03/16 04:23:21;;;;;;;30.88;18.85;;;2.10;99.90;;;;;;5075989;28;20055;-78
2022/03/16 04:28:16;;;;;;;32.42;18.17;;;2.20;99.90;;;;;;5074122;28;20049;-53
2022/03/16 04:30:41;;;;;;;36.45;21.33;;;2.20;99.90;;;;;;5075423;28;20035;-47
2022/03/16 04:33:07;;;;;;;36.83;17.88;;;2.20;99.90;;;;;;5074173;28;20024;-54
2022/03/16 04:35:33;;;;;;;32.67;18.33;;;2.20;99.90;;;;;;5074923;28;20024;-50
2022/03/16 04:37:58;;;;;;;37.42;19.85;;;2.20;99.90;;;;;;5075592;28;20387;-50
2022/03/16 04:40:24;;;;;;;34.65;19.65;;;2.20;99.90;;;;;;5075722;28;20396;-50
2022/03/16 04:42:49;;;;;;;31.92;19.80;;;2.20;99.90;;;;;;5075465;28;20480;-49
2022/03/16 04:45:15;;;;;;;27.63;17.50;;;2.20;99.90;;;;;;5075352;28;20034;-54
2022/03/16 04:47:40;;;;;;;33.15;18.48;;;2.20;99.90;;;;;;5075028;28;20033;-49
2022/03/16 04:50:06;;;;;;;33.25;18.95;;;2.20;99.90;;;;;;5075497;28;20052;-50
2022/03/16 04:52:32;;;;;;;32.83;17.98;;;2.20;99.90;;;;;;5074632;28;20119;-54
2022/03/16 04:54:58;;;;;;;30.83;17.30;;;2.10;99.90;;;;;;5075625;28;20107;-51
2022/03/16 04:57:23;;;;;;;31.58;18.55;;;2.10;99.90;;;;;;5075457;28;20105;-49
2022/03/16 04:59:49;;;;;;;26.80;17.95;;;2.10;99.90;;;;;;5075076;28;20028;-50
2022/03/16 05:02:15;;;;;;;26.02;16.83;;;2.10;99.90;;;;;;5074369;28;20027;-50
2022/03/16 05:04:40;;;;;;;27.73;17.33;;;2.10;99.90;;;;;;5074702;28;20041;-53
2022/03/16 05:07:06;;;;;;;26.10;15.45;;;2.10;99.90;;;;;;5075377;28;20099;-52
2022/03/16 05:09:31;;;;;;;27.52;15.98;;;2.10;99.90;;;;;;5075217;28;20153;-49
2022/03/16 05:11:57;;;;;;;27.20;15.75;;;2.00;99.90;;;;;;5074811;28;20024;-49
2022/03/16 05:14:22;;;;;;;23.73;16.70;;;2.00;99.90;;;;;;5075076;28;20408;-47
2022/03/16 05:16:48;;;;;;;25.65;16.02;;;2.00;99.90;;;;;;5074528;28;20044;-50
2022/03/16 05:19:14;;;;;;;23.75;15.90;;;1.90;99.90;;;;;;5075334;28;20024;-51
2022/03/16 05:21:39;;;;;;;22.08;15.18;;;2.00;99.90;;;;;;5074952;28;20552;-49
2022/03/16 05:24:05;;;;;;;22.80;15.02;;;1.90;99.90;;;;;;5074723;28;20493;-50
2022/03/16 05:26:31;;;;;;;21.42;14.73;;;1.90;99.90;;;;;;5074680;28;20054;-48
2022/03/16 05:28:56;;;;;;;23.45;14.18;;;1.80;99.90;;;;;;5072712;28;20029;-53
2022/03/16 05:31:22;;;;;;;26.73;14.80;;;1.80;99.90;;;;;;5053626;28;20040;-49
2022/03/16 05:33:48;;;;;;;25.60;15.48;;;1.80;99.90;;;;;;5070965;28;20040;-53
2022/03/16 05:36:14;;;;;;;20.52;13.63;;;1.70;99.90;;;;;;5071931;28;20024;-54
2022/03/16 05:38:40;;;;;;;17.00;12.82;;;1.70;99.90;;;;;;5071383;28;20071;-53
2022/03/16 05:41:05;;;;;;;22.15;14.27;;;1.60;99.90;;;;;;5071590;28;20068;-52
2022/03/16 05:43:31;;;;;;;20.40;14.93;;;1.60;99.90;;;;;;5071288;28;20029;-50
2022/03/16 05:45:57;;;;;;;22.58;14.48;;;1.60;99.90;;;;;;5071684;28;20028;-53
2022/03/16 05:48:22;;;;;;;21.20;14.25;;;1.50;99.90;;;;;;5071491;28;20562;-53
2022/03/16 05:50:48;;;;;;;20.02;13.63;;;1.50;99.90;;;;;;5071282;28;20506;-51
2022/03/16 05:53:14;;;;;;;18.23;13.52;;;1.50;99.90;;;;;;5071011;28;20047;-53
2022/03/16 05:55:40;;;;;;;19.75;13.55;;;1.50;99.90;;;;;;5071744;28;20404;-52
2022/03/16 05:58:06;;;;;;;19.20;12.50;;;1.50;99.90;;;;;;5071511;28;20043;-52
2022/03/16 06:00:32;;;;;;;22.23;13.75;;;1.40;99.90;;;;;;5071071;28;20024;-48
2022/03/16 06:02:58;;;;;;;24.80;15.25;;;1.50;99.90;;;;;;5070474;28;20506;-53
2022/03/16 06:05:24;;;;;;;23.27;15.50;;;1.50;99.90;;;;;;5071454;28;20023;-50
2022/03/16 06:07:50;;;;;;;21.20;14.73;;;1.60;99.90;;;;;;5071118;28;20047;-51
2022/03/16 06:10:17;;;;;;;22.40;15.07;;;1.60;99.90;;;;;;5071069;28;20518;-51
2022/03/16 06:12:50;;;;;;;26.33;16.90;;;1.60;99.90;;;;;;5067787;28;20027;-52
2022/03/16 06:15:15;;;;;;;21.20;15.35;;;1.60;99.90;;;;;;5067643;28;20039;-50
2022/03/16 06:17:41;;;;;;;23.30;15.82;;;1.60;99.90;;;;;;5069763;28;20396;-50
2022/03/16 06:20:08;;;;;;;29.42;16.45;;;1.60;99.90;;;;;;5071341;28;20590;-51
2022/03/16 06:22:33;;;;;;;28.08;16.60;;;1.60;99.90;;;;;;5070603;28;20559;-53
2022/03/16 06:24:59;;;;;;;22.02;14.18;;;1.70;99.90;;;;;;5070020;28;20105;-49
2022/03/16 06:27:24;;;;;;;26.73;16.20;;;1.70;99.90;;;;;;5070763;28;20055;-49
2022/03/16 06:29:50;;;;;;;24.38;15.85;;;1.70;99.90;;;;;;5070482;28;20029;-50
2022/03/16 06:32:16;;;;;;;23.20;15.40;;;1.80;99.90;;;;;;5070224;28;20028;-52
2022/03/16 06:34:41;;;;;;;22.38;15.13;;;1.80;99.90;;;;;;5052741;28;20036;-49
2022/03/16 06:37:07;;;;;;;24.08;15.13;;;1.80;99.90;;;;;;5070934;28;20526;-49
2022/03/16 06:39:32;;;;;;;20.60;14.45;;;1.80;99.90;;;;;;5070039;28;20451;-47
2022/03/16 06:41:58;;;;;;;23.02;14.27;;;1.90;99.90;;;;;;5070409;28;20016;-50
2022/03/16 06:44:23;;;;;;;21.17;15.77;;;2.00;99.90;;;;;;5070397;28;20131;-50
2022/03/16 06:46:49;;;;;;;24.92;17.10;;;2.00;99.90;;;;;;5052561;28;20028;-49
2022/03/16 06:49:14;;;;;;;22.17;15.25;;;2.10;99.90;;;;;;5070590;28;20111;-50
2022/03/16 06:51:40;;;;;;;22.00;15.10;;;2.10;99.90;;;;;;5069979;28;20123;-49
2022/03/16 06:54:06;;;;;;;23.90;15.73;;;2.20;99.90;;;;;;5069778;28;20028;-53
2022/03/16 06:56:31;;;;;;;28.17;16.30;;;2.30;99.90;;;;;;5070245;28;20032;-49
2022/03/16 06:58:57;;;;;;;20.95;15.35;;;2.40;99.90;;;;;;5069934;28;20089;-52
2022/03/16 07:01:22;;;;;;;26.77;16.77;;;2.50;99.90;;;;;;5070142;28;20085;-50
2022/03/16 07:03:48;;;;;;;26.08;17.17;;;2.60;99.90;;;;;;5069116;28;20027;-51
2022/03/16 07:06:13;;;;;;;29.20;17.05;;;2.70;99.90;;;;;;5070178;28;20438;-51
2022/03/16 07:08:39;;;;;;;27.90;15.40;;;2.80;99.90;;;;;;5069975;28;20043;-53
2022/03/16 07:11:07;;;;;;;23.35;15.70;;;2.80;99.90;;;;;;5069748;28;20148;-51
2022/03/16 07:13:33;;;;;;;26.60;17.08;;;2.90;99.90;;;;;;5069630;28;20116;-52
2022/03/16 07:15:58;;;;;;;25.63;15.98;;;2.90;99.90;;;;;;5070222;28;20373;-50
2022/03/16 07:18:24;;;;;;;26.58;15.70;;;3.00;99.90;;;;;;5070185;28;20106;-52
2022/03/16 07:20:49;;;;;;;32.85;17.42;;;3.00;99.90;;;;;;5070019;28;20029;-53
2022/03/16 07:23:17;;;;;;;32.55;17.10;;;3.10;99.90;;;;;;5069282;28;20112;-50
2022/03/16 07:25:45;;;;;;;32.20;17.13;;;3.20;99.90;;;;;;5053773;28;20016;-52
2022/03/16 07:28:11;;;;;;;19.75;14.32;;;3.20;99.90;;;;;;5069702;28;20075;-51
2022/03/16 07:30:37;;;;;;;22.38;16.35;;;3.20;99.90;;;;;;5073717;28;20480;-53
2022/03/16 07:33:04;;;;;;;23.48;16.08;;;3.30;99.90;;;;;;5069237;28;20058;-50
2022/03/16 07:35:30;;;;;;;27.17;20.90;;;3.40;99.90;;;;;;5069368;28;20024;-49
2022/03/16 07:37:57;;;;;;;22.42;16.20;;;3.40;99.90;;;;;;5069581;28;20484;-50
2022/03/16 07:40:24;;;;;;;22.77;15.98;;;3.40;99.90;;;;;;5069567;28;20111;-50
2022/03/16 07:42:51;;;;;;;19.75;15.40;;;3.50;99.90;;;;;;5069347;28;20507;-55
2022/03/16 07:45:18;;;;;;;22.58;15.15;;;3.50;99.90;;;;;;5068656;28;20036;-52
2022/03/16 07:47:48;;;;;;;20.77;15.75;;;3.60;99.90;;;;;;5069733;28;20049;-53
2022/03/16 07:50:15;;;;;;;21.33;14.55;;;3.60;99.90;;;;;;5069494;28;20021;-54
2022/03/16 07:52:41;;;;;;;16.63;13.32;;;3.60;99.90;;;;;;5068351;28;20032;-56
2022/03/16 07:55:08;;;;;;;16.20;12.77;;;3.70;99.90;;;;;;5069458;28;20051;-53
2022/03/16 07:57:34;;;;;;;19.05;12.25;;;3.70;99.90;;;;;;5068835;28;20036;-53
2022/03/16 08:00:02;;;;;;;17.92;12.77;;;3.80;99.90;;;;;;5069722;28;20523;-53
2022/03/16 08:02:28;;;;;;;18.38;12.88;;;3.80;99.90;;;;;;5068540;28;20024;-54
2022/03/16 08:04:57;;;;;;;17.23;11.23;;;3.80;99.90;;;;;;5069338;28;20044;-53
2022/03/16 08:07:24;;;;;;;16.65;12.52;;;3.90;99.90;;;;;;5069019;28;20024;-54
2022/03/16 08:09:50;;;;;;;16.98;12.18;;;3.90;99.90;;;;;;5068930;28;20079;-54
2022/03/16 08:12:16;;;;;;;14.43;11.70;;;3.90;99.90;;;;;;5068841;28;20106;-51
2022/03/16 08:14:41;;;;;;;13.98;11.02;;;4.00;99.90;;;;;;5069059;28;20555;-52
2022/03/16 08:17:07;;;;;;;14.30;11.07;;;4.00;99.90;;;;;;5068562;28;20041;-55
2022/03/16 08:19:32;;;;;;;13.38;11.13;;;4.10;99.90;;;;;;5068941;28;20020;-54
2022/03/16 08:21:59;;;;;;;15.13;10.85;;;4.10;99.90;;;;;;5068772;28;20078;-54
2022/03/16 08:24:24;;;;;;;18.95;11.13;;;4.20;99.90;;;;;;5068504;28;20142;-53
2022/03/16 08:26:50;;;;;;;11.68;9.75;;;4.30;99.90;;;;;;5068789;28;20047;-51
2022/03/16 08:29:15;;;;;;;12.02;9.50;;;4.30;99.90;;;;;;5069005;28;20055;-53
2022/03/16 08:31:41;;;;;;;11.32;9.27;;;4.40;99.90;;;;;;5068990;28;20056;-51
2022/03/16 08:34:07;;;;;;;13.77;8.57;;;4.40;99.90;;;;;;5069193;28;20028;-53
2022/03/16 08:36:33;;;;;;;11.93;10.05;;;4.40;99.90;;;;;;5067933;28;20078;-52
2022/03/16 08:39:00;;;;;;;11.02;8.43;;;4.50;99.90;;;;;;5069689;28;20028;-53
2022/03/16 08:41:26;;;;;;;12.80;9.20;;;4.60;99.90;;;;;;5068771;28;20021;-52
2022/03/16 08:43:51;;;;;;;10.35;9.18;;;4.70;99.90;;;;;;5068598;28;20425;-55
2022/03/16 08:46:17;;;;;;;13.10;9.27;;;4.90;99.90;;;;;;5069000;28;20029;-53
2022/03/16 08:48:42;;;;;;;17.60;8.75;;;5.00;99.90;;;;;;5068870;28;20036;-53
2022/03/16 08:51:08;;;;;;;9.13;8.18;;;5.10;99.90;;;;;;5068117;28;20033;-53
2022/03/16 08:53:37;;;;;;;15.57;9.65;;;5.20;99.90;;;;;;5068467;28;20031;-54
2022/03/16 08:56:03;;;;;;;11.30;8.50;;;5.30;99.90;;;;;;5068994;28;20070;-54
2022/03/16 08:58:29;;;;;;;11.43;9.18;;;5.40;99.90;;;;;;5069163;28;20028;-51
2022/03/16 09:00:54;;;;;;;10.68;8.63;;;5.50;99.90;;;;;;5067665;28;20087;-56
2022/03/16 09:03:20;;;;;;;11.45;8.43;;;5.60;99.90;;;;;;5070617;28;20366;-56
2022/03/16 09:05:46;;;;;;;9.35;7.88;;;5.70;99.90;;;;;;5072872;28;20017;-52
2022/03/16 09:08:12;;;;;;;9.68;7.65;;;5.80;99.90;;;;;;5072924;28;20100;-54
2022/03/16 09:10:38;;;;;;;11.60;8.30;;;5.90;99.90;;;;;;5072777;28;20556;-55
2022/03/16 09:13:04;;;;;;;12.70;8.75;;;6.10;99.90;;;;;;5072237;28;20104;-52
2022/03/16 09:15:30;;;;;;;10.15;8.02;;;6.20;99.90;;;;;;5072461;28;20048;-54
2022/03/16 09:17:56;;;;;;;11.70;8.10;;;6.30;99.90;;;;;;5072581;28;20031;-51
2022/03/16 09:20:21;;;;;;;9.55;7.35;;;6.40;99.90;;;;;;5072223;28;20017;-54
2022/03/16 09:22:47;;;;;;;9.70;7.70;;;6.50;99.90;;;;;;5071404;28;20025;-54
2022/03/16 09:25:13;;;;;;;9.30;7.88;;;6.50;99.90;;;;;;5071984;28;20035;-54
2022/03/16 09:27:38;;;;;;;9.43;7.78;;;6.60;99.90;;;;;;5072257;28;20025;-53
2022/03/16 09:30:05;;;;;;;8.73;7.82;;;6.70;99.90;;;;;;5071737;28;20059;-55
2022/03/16 09:32:33;;;;;;;9.05;8.02;;;6.80;99.90;;;;;;5071915;28;20037;-56
2022/03/16 09:34:59;;;;;;;12.68;8.63;;;6.90;99.90;;;;;;5071628;28;20032;-54
2022/03/16 09:37:25;;;;;;;7.10;6.13;;;7.00;99.90;;;;;;5072055;28;20032;-51
2022/03/16 09:39:51;;;;;;;8.90;7.10;;;7.10;99.90;;;;;;5072026;28;20028;-57
2022/03/16 09:42:19;;;;;;;10.27;6.97;;;7.20;99.90;;;;;;5071984;28;20104;-54
2022/03/16 09:44:45;;;;;;;11.60;7.60;;;7.40;99.90;;;;;;5071828;28;20029;-54
2022/03/16 09:47:12;;;;;;;9.60;7.10;;;7.60;99.90;;;;;;5072358;28;20024;-56
2022/03/16 09:49:39;;;;;;;10.60;7.38;;;7.70;99.90;;;;;;5071979;28;20044;-57
2022/03/16 09:52:07;;;;;;;12.10;7.15;;;7.80;99.90;;;;;;5072154;28;20032;-55
2022/03/16 09:54:33;;;;;;;8.43;7.20;;;8.00;99.90;;;;;;5071833;28;20025;-53
2022/03/16 09:56:59;;;;;;;9.75;6.38;;;8.20;99.90;;;;;;5054196;28;20052;-53
2022/03/16 09:59:25;;;;;;;9.68;6.82;;;8.30;99.90;;;;;;5071389;28;20043;-52
2022/03/16 10:02:09;;;;;;;11.75;6.18;;;8.50;99.90;;;;;;5071195;28;20103;-52
2022/03/16 10:04:36;;;;;;;8.57;6.20;;;8.70;99.90;;;;;;5071205;28;20488;-54
2022/03/16 10:07:04;;;;;;;8.35;6.15;;;8.80;99.90;;;;;;5071785;28;20037;-52
2022/03/16 10:15:04;;;;;;;8.85;6.40;;;9.30;99.90;;;;;;5070829;28;20102;-50
2022/03/16 10:17:45;;;;;;;10.15;6.88;;;9.50;99.90;;;;;;5071436;28;20040;-56
2022/03/16 10:20:29;;;;;;;7.57;6.35;;;9.60;99.90;;;;;;5070644;28;20029;-52
2022/03/16 10:22:57;;;;;;;7.60;5.70;;;9.70;99.90;;;;;;5070024;28;20025;-56
2022/03/16 10:25:25;;;;;;;9.48;6.28;;;9.70;99.90;;;;;;5071506;28;20028;-55
2022/03/16 10:27:50;;;;;;;5.90;5.03;;;9.50;99.90;;;;;;5070083;28;20036;-51
2022/03/16 10:30:16;;;;;;;7.13;5.55;;;9.60;99.90;;;;;;5070735;28;20032;-53
2022/03/16 10:32:54;;;;;;;7.95;5.32;;;9.60;99.90;;;;;;5070611;28;20029;-56
2022/03/16 10:35:20;;;;;;;7.30;5.15;;;9.70;99.90;;;;;;5051474;28;20507;-56
2022/03/16 10:37:47;;;;;;;8.30;5.65;;;9.70;99.90;;;;;;5052483;28;20025;-53
2022/03/16 10:40:20;;;;;;;6.43;4.55;;;9.60;99.90;;;;;;5071218;28;20534;-54
2022/03/16 10:48:25;;;;;;;5.93;5.00;;;9.80;99.90;;;;;;5069645;28;20149;-55
2022/03/16 10:50:57;;;;;;;11.00;5.35;;;9.80;99.90;;;;;;5070377;28;20017;-54
2022/03/16 10:53:28;;;;;;;6.88;4.50;;;9.80;99.90;;;;;;5069131;28;20115;-57
2022/03/16 10:55:56;;;;;;;8.13;5.60;;;10.00;99.90;;;;;;5070232;28;20021;-52
2022/03/16 10:58:23;;;;;;;5.90;4.75;;;10.20;99.90;;;;;;5070369;28;20135;-51
2022/03/16 11:00:51;;;;;;;8.40;4.10;;;10.20;99.90;;;;;;5070153;28;20017;-57
2022/03/16 11:03:22;;;;;;;8.73;4.10;;;10.20;99.90;;;;;;5070264;28;20227;-55
2022/03/16 11:05:48;;;;;;;5.78;4.32;;;10.20;99.90;;;;;;5070325;28;20028;-56
2022/03/16 11:08:15;;;;;;;7.22;5.20;;;10.20;99.90;;;;;;5070969;28;20108;-51
2022/03/16 11:10:43;;;;;;;5.00;4.50;;;10.20;99.90;;;;;;5070309;28;20020;-56
2022/03/16 11:13:28;;;;;;;6.07;4.05;;;10.20;99.90;;;;;;5069792;28;20487;-54
2022/03/16 11:15:55;;;;;;;5.88;4.53;;;10.30;99.90;;;;;;5050105;28;20025;-55
2022/03/16 11:18:23;;;;;;;8.10;4.80;;;10.30;99.90;;;;;;5061868;28;20025;-52
2022/03/16 11:20:51;;;;;;;6.47;4.90;;;10.30;99.90;;;;;;5070169;28;20056;-52
2022/03/16 11:26:36;;;;;;;6.15;4.35;;;10.30;99.90;;;;;;5068605;28;20051;-49
2022/03/16 11:29:13;;;;;;;6.45;4.38;;;10.40;99.90;;;;;;5069924;28;20052;-53
2022/03/16 11:31:42;;;;;;;5.90;4.80;;;10.40;99.90;;;;;;5069370;28;20446;-51
2022/03/16 11:34:10;;;;;;;8.50;4.60;;;10.40;99.90;;;;;;5069683;28;20029;-53
2022/03/16 11:36:40;;;;;;;6.50;4.63;;;10.30;99.90;;;;;;5069513;28;20024;-55
2022/03/16 11:39:16;;;;;;;7.30;4.55;;;10.30;99.90;;;;;;5052020;28;20142;-49
2022/03/16 11:41:52;;;;;;;7.00;4.97;;;10.40;99.90;;;;;;5069495;28;20020;-51
2022/03/16 11:44:26;;;;;;;8.10;4.90;;;10.40;99.90;;;;;;5069828;28;20016;-52
2022/03/16 11:46:53;;;;;;;8.57;5.32;;;10.40;99.90;;;;;;5069683;28;20318;-51
2022/03/16 11:49:29;;;;;;;8.32;5.03;;;10.50;99.90;;;;;;5069411;28;20101;-53
2022/03/16 11:51:59;;;;;;;6.25;5.03;;;10.50;99.90;;;;;;5049619;28;20396;-50
2022/03/16 11:54:45;;;;;;;8.90;5.32;;;10.50;99.90;;;;;;5050188;28;20385;-56
2022/03/16 11:57:12;;;;;;;5.78;4.45;;;10.60;99.90;;;;;;5049596;28;20032;-53
2022/03/16 11:59:45;;;;;;;6.68;5.50;;;10.60;99.90;;;;;;5049400;28;20052;-54
2022/03/16 12:02:16;;;;;;;6.00;5.30;;;10.60;99.90;;;;;;5049061;28;20043;-54
2022/03/16 12:04:46;;;;;;;9.57;4.72;;;10.70;99.90;;;;;;5049422;28;20183;-53
2022/03/16 12:07:15;;;;;;;7.03;5.07;;;10.80;99.90;;;;;;5049402;28;20021;-53
2022/03/16 12:09:44;;;;;;;6.13;4.95;;;10.80;99.90;;;;;;5049367;28;20134;-53
2022/03/16 12:15:10;;;;;;;6.13;4.95;;;10.80;99.90;;;;;;5050348;28;20051;-51
2022/03/16 12:17:43;;;;;;;7.78;6.25;;;10.80;99.90;;;;;;5050885;28;20485;-53
2022/03/16 12:20:23;;;;;;;7.90;6.38;;;10.70;99.90;;;;;;5050459;28;20029;-54
2022/03/16 12:23:05;;;;;;;7.30;5.10;;;10.70;99.90;;;;;;5050054;28;20362;-55
2022/03/16 12:25:33;;;;;;;10.02;6.25;;;10.70;99.90;;;;;;5031777;28;20119;-52
2022/03/16 12:30:56;;;;;;;8.38;6.45;;;10.70;99.90;;;;;;5049207;28;20138;-55
2022/03/16 12:33:48;;;;;;;9.63;7.07;;;10.60;99.90;;;;;;5065451;28;20036;-51
2022/03/16 12:36:17;;;;;;;10.68;6.80;;;10.70;99.90;;;;;;5067910;28;20047;-53
2022/03/16 12:38:44;;;;;;;9.50;6.60;;;10.70;99.90;;;;;;5071648;28;20058;-54
2022/03/16 12:43:57;;;;;;;7.88;5.88;;;10.90;99.90;;;;;;5071879;28;20032;-53
2022/03/16 12:46:27;;;;;;;5.70;5.10;;;11.00;99.90;;;;;;5071586;28;20103;-54
2022/03/16 12:48:59;;;;;;;9.95;6.57;;;11.00;99.90;;;;;;5072674;28;20028;-52
2022/03/16 12:51:48;;;;;;;6.38;5.70;;;11.10;99.90;;;;;;5072635;28;20024;-55
2022/03/16 12:54:23;;;;;;;7.72;4.80;;;11.10;99.90;;;;;;5071278;28;20032;-54
2022/03/16 12:56:52;;;;;;;6.57;5.07;;;11.20;99.90;;;;;;5072172;28;20656;-53
2022/03/16 12:59:25;;;;;;;7.43;4.95;;;11.20;99.90;;;;;;5069592;28;20049;-49
2022/03/16 13:01:54;;;;;;;7.75;5.18;;;11.10;99.90;;;;;;5070631;28;20036;-52
2022/03/16 13:04:23;;;;;;;5.32;4.82;;;11.10;99.90;;;;;;5071724;28;20032;-52